createdAt,value
2019-01-21T00:00:46.388Z,-4.76
2019-01-21T00:01:54.436Z,-4.77
2019-01-21T00:03:02.692Z,-4.83
2019-01-21T00:04:10.217Z,-4.87
2019-01-21T00:05:18.161Z,-4.88
2019-01-21T00:06:26.287Z,-4.90
2019-01-21T00:07:33.939Z,-4.90
2019-01-21T00:08:41.793Z,-4.89
2019-01-21T00:09:49.412Z,-4.91
2019-01-21T00:10:56.964Z,-4.92
2019-01-21T00:12:05.020Z,-4.95
2019-01-21T00:13:12.656Z,-4.97
2019-01-21T00:14:20.727Z,-4.98
2019-01-21T00:15:28.353Z,-5.00
2019-01-21T00:16:36.120Z,-5.01
2019-01-21T00:17:44.099Z,-5.03
2019-01-21T00:18:52.105Z,-5.06
2019-01-21T00:19:59.888Z,-5.07
2019-01-21T00:21:07.891Z,-5.12
2019-01-21T00:22:15.537Z,-5.13
2019-01-21T00:23:23.382Z,-5.15
2019-01-21T00:24:31.317Z,-5.17
2019-01-21T00:25:39.100Z,-5.20
2019-01-21T00:26:46.837Z,-5.20
2019-01-21T00:27:54.558Z,-5.20
2019-01-21T00:29:02.144Z,-5.20
2019-01-21T00:30:12.762Z,-5.22
2019-01-21T00:31:20.487Z,-5.23
2019-01-21T00:32:28.184Z,-5.24
2019-01-21T00:33:36.257Z,-5.25
2019-01-21T00:34:43.831Z,-5.23
2019-01-21T00:35:52.015Z,-5.24
2019-01-21T00:37:03.620Z,-5.24
2019-01-21T00:38:09.967Z,-5.23
2019-01-21T00:39:17.662Z,-5.24
2019-01-21T00:40:25.503Z,-5.22
2019-01-21T00:41:33.662Z,-5.24
2019-01-21T00:42:41.568Z,-5.23
2019-01-21T00:43:49.640Z,-5.23
2019-01-21T00:44:57.266Z,-5.23
2019-01-21T00:46:04.808Z,-5.24
2019-01-21T00:47:12.332Z,-5.25
2019-01-21T00:48:20.029Z,-5.26
2019-01-21T00:49:27.908Z,-5.29
2019-01-21T00:50:35.978Z,-5.30
2019-01-21T00:51:44.096Z,-5.30
2019-01-21T00:52:51.662Z,-5.33
2019-01-21T00:53:59.709Z,-5.32
2019-01-21T00:55:10.457Z,-5.32
2019-01-21T00:56:18.291Z,-5.33
2019-01-21T00:57:26.006Z,-5.36
2019-01-21T00:58:33.837Z,-5.35
2019-01-21T00:59:41.862Z,-5.36
2019-01-21T01:00:49.330Z,-5.35
2019-01-21T01:01:58.506Z,-5.36
2019-01-21T01:03:37.414Z,-5.35
2019-01-21T01:04:45.490Z,-5.40
2019-01-21T01:05:53.516Z,-5.40
2019-01-21T01:07:01.278Z,-5.41
2019-01-21T01:08:08.937Z,-5.43
2019-01-21T01:09:16.535Z,-5.45
2019-01-21T01:10:24.278Z,-5.49
2019-01-21T01:11:32.018Z,-5.53
2019-01-21T01:12:39.553Z,-5.55
2019-01-21T01:13:47.195Z,-5.53
2019-01-21T01:14:54.911Z,-5.55
2019-01-21T01:16:02.980Z,-5.53
2019-01-21T01:17:10.721Z,-5.51
2019-01-21T01:18:18.313Z,-5.52
2019-01-21T01:19:25.911Z,-5.52
2019-01-21T01:20:33.728Z,-5.52
2019-01-21T01:21:41.598Z,-5.51
2019-01-21T01:22:49.640Z,-5.53
2019-01-21T01:23:57.408Z,-5.51
2019-01-21T01:25:05.918Z,-5.52
2019-01-21T01:26:13.546Z,-5.53
2019-01-21T01:27:21.285Z,-5.53
2019-01-21T01:28:29.039Z,-5.54
2019-01-21T01:29:36.505Z,-5.54
2019-01-21T01:30:44.315Z,-5.57
2019-01-21T01:31:52.015Z,-5.58
2019-01-21T01:32:59.631Z,-5.58
2019-01-21T01:34:07.399Z,-5.59
2019-01-21T01:35:16.358Z,-5.61
2019-01-21T01:36:23.916Z,-5.62
2019-01-21T01:37:31.561Z,-5.62
2019-01-21T01:38:39.474Z,-5.62
2019-01-21T01:39:47.073Z,-5.63
2019-01-21T01:40:55.092Z,-5.64
2019-01-21T01:42:02.549Z,-5.64
2019-01-21T01:43:10.547Z,-5.65
2019-01-21T01:44:18.197Z,-5.67
2019-01-21T01:45:26.223Z,-5.65
2019-01-21T01:46:34.019Z,-5.65
2019-01-21T01:47:44.864Z,-5.65
2019-01-21T01:48:51.250Z,-5.64
2019-01-21T01:49:59.045Z,-5.65
2019-01-21T01:51:06.709Z,-5.64
2019-01-21T01:52:14.455Z,-5.64
2019-01-21T01:53:22.148Z,-5.62
2019-01-21T01:54:29.794Z,-5.61
2019-01-21T01:55:37.876Z,-5.62
2019-01-21T01:56:45.762Z,-5.62
2019-01-21T01:57:55.082Z,-5.63
2019-01-21T01:59:02.791Z,-5.64
2019-01-21T02:00:16.023Z,-5.62
2019-01-21T02:01:23.837Z,-5.61
2019-01-21T02:02:31.697Z,-5.60
2019-01-21T02:03:39.466Z,-5.61
2019-01-21T02:04:47.149Z,-5.61
2019-01-21T02:05:55.060Z,-5.62
2019-01-21T02:07:02.856Z,-5.61
2019-01-21T02:08:10.716Z,-5.62
2019-01-21T02:09:18.326Z,-5.60
2019-01-21T02:10:25.996Z,-5.57
2019-01-21T02:11:33.758Z,-5.58
2019-01-21T02:12:41.362Z,-5.56
2019-01-21T02:13:49.082Z,-5.56
2019-01-21T02:14:56.964Z,-5.56
2019-01-21T02:16:04.959Z,-5.57
2019-01-21T02:17:12.595Z,-5.57
2019-01-21T02:18:20.551Z,-5.58
2019-01-21T02:19:29.660Z,-5.58
2019-01-21T02:20:37.193Z,-5.57
2019-01-21T02:21:44.682Z,-5.58
2019-01-21T02:22:58.628Z,-5.58
2019-01-21T02:24:07.421Z,-5.59
2019-01-21T02:25:15.246Z,-5.59
2019-01-21T02:26:23.720Z,-5.57
2019-01-21T02:27:36.110Z,-5.56
2019-01-21T02:28:57.560Z,-5.56
2019-01-21T02:30:15.696Z,-5.55
2019-01-21T02:31:55.644Z,-5.54
2019-01-21T02:33:26.371Z,-5.54
2019-01-21T02:34:53.812Z,-5.53
2019-01-21T02:36:09.139Z,-5.55
2019-01-21T02:37:29.985Z,-5.58
2019-01-21T02:38:51.239Z,-5.59
2019-01-21T02:40:27.573Z,-5.60
2019-01-21T02:41:37.910Z,-5.62
2019-01-21T02:42:53.378Z,-5.61
2019-01-21T02:44:24.140Z,-5.59
2019-01-21T02:45:42.520Z,-5.59
2019-01-21T02:47:12.735Z,-5.57
2019-01-21T02:48:44.511Z,-5.59
2019-01-21T02:50:05.765Z,-5.59
2019-01-21T02:51:43.494Z,-5.63
2019-01-21T02:53:01.639Z,-5.71
2019-01-21T02:54:16.637Z,-5.81
2019-01-21T02:55:40.981Z,-5.87
2019-01-21T02:57:01.523Z,-5.88
2019-01-21T02:58:25.419Z,-5.95
2019-01-21T03:00:01.689Z,-5.98
2019-01-21T03:01:33.829Z,-6.02
2019-01-21T03:02:54.466Z,-6.03
2019-01-21T03:04:21.276Z,-6.07
2019-01-21T03:06:02.318Z,-6.06
2019-01-21T03:07:40.503Z,-6.07
2019-01-21T03:08:53.000Z,-6.09
2019-01-21T03:10:37.120Z,-6.10
2019-01-21T03:11:55.215Z,-6.13
2019-01-21T03:13:40.186Z,-6.19
2019-01-21T03:15:20.523Z,-6.23
2019-01-21T03:16:58.604Z,-6.28
2019-01-21T03:18:19.548Z,-6.29
2019-01-21T03:19:46.724Z,-6.32
2019-01-21T03:21:10.648Z,-6.34
2019-01-21T03:22:43.877Z,-6.35
2019-01-21T03:24:19.074Z,-6.35
2019-01-21T03:25:46.216Z,-6.35
2019-01-21T03:27:28.987Z,-6.34
2019-01-21T03:28:49.908Z,-6.32
2019-01-21T03:30:38.679Z,-6.30
2019-01-21T03:32:24.400Z,-6.32
2019-01-21T03:33:48.508Z,-6.33
2019-01-21T03:35:09.596Z,-6.36
2019-01-21T03:36:39.690Z,-6.36
2019-01-21T03:38:33.524Z,-6.40
2019-01-21T03:40:03.833Z,-6.40
2019-01-21T03:41:31.350Z,-6.44
2019-01-21T03:42:58.597Z,-6.46
2019-01-21T03:44:31.486Z,-6.48
2019-01-21T03:45:49.575Z,-6.48
2019-01-21T03:47:25.742Z,-6.48
2019-01-21T03:48:38.090Z,-6.47
2019-01-21T03:50:22.214Z,-6.44
2019-01-21T03:52:02.368Z,-6.38
2019-01-21T03:53:26.811Z,-6.34
2019-01-21T03:54:34.739Z,-6.31
2019-01-21T03:55:42.960Z,-6.30
2019-01-21T03:56:55.502Z,-6.27
2019-01-21T03:58:32.010Z,-6.25
2019-01-21T03:59:55.863Z,-6.22
2019-01-21T04:01:14.559Z,-6.17
2019-01-21T04:02:26.932Z,-6.12
2019-01-21T04:04:03.856Z,-6.07
2019-01-21T04:05:37.088Z,-6.01
2019-01-21T04:06:52.442Z,-5.93
2019-01-21T04:08:07.778Z,-5.86
2019-01-21T04:09:38.019Z,-5.79
2019-01-21T04:11:01.900Z,-5.71
2019-01-21T04:12:39.162Z,-5.63
2019-01-21T04:14:12.972Z,-5.53
2019-01-21T04:15:36.792Z,-5.44
2019-01-21T04:16:57.961Z,-5.37
2019-01-21T04:18:13.245Z,-5.32
2019-01-21T04:19:34.047Z,-5.28
2019-01-21T04:20:58.211Z,-5.22
2019-01-21T04:22:13.683Z,-5.16
2019-01-21T04:23:51.940Z,-5.11
2019-01-21T04:25:16.269Z,-5.06
2019-01-21T04:26:34.604Z,-5.01
2019-01-21T04:28:14.136Z,-4.97
2019-01-21T04:29:46.224Z,-4.93
2019-01-21T04:31:14.041Z,-4.88
2019-01-21T04:32:44.183Z,-4.86
2019-01-21T04:34:05.340Z,-4.81
2019-01-21T04:35:49.463Z,-4.79
2019-01-21T04:37:16.977Z,-4.76
2019-01-21T04:38:56.953Z,-4.73
2019-01-21T04:40:14.846Z,-4.69
2019-01-21T04:41:59.567Z,-4.67
2019-01-21T04:43:50.300Z,-4.62
2019-01-21T04:45:18.948Z,-4.56
2019-01-21T04:46:48.731Z,-4.51
2019-01-21T04:48:18.910Z,-4.48
2019-01-21T04:49:39.842Z,-4.44
2019-01-21T04:51:25.927Z,-4.40
2019-01-21T04:52:47.271Z,-4.38
2019-01-21T04:54:28.368Z,-4.38
2019-01-21T04:56:09.825Z,-4.36
2019-01-21T04:57:40.501Z,-4.36
2019-01-21T04:59:01.410Z,-4.35
2019-01-21T05:00:19.430Z,-4.32
2019-01-21T05:02:02.400Z,-4.29
2019-01-21T05:03:41.046Z,-4.27
2019-01-21T05:05:31.243Z,-4.24
2019-01-21T05:07:16.499Z,-4.23
2019-01-21T05:09:04.756Z,-4.21
2019-01-21T05:10:39.835Z,-4.21
2019-01-21T05:12:03.813Z,-4.20
2019-01-21T05:13:19.039Z,-4.20
2019-01-21T05:14:48.894Z,-4.19
2019-01-21T05:16:15.939Z,-4.20
2019-01-21T05:17:37.400Z,-4.19
2019-01-21T05:19:12.930Z,-4.17
2019-01-21T05:20:58.616Z,-4.16
2019-01-21T05:22:26.402Z,-4.16
2019-01-21T05:24:04.280Z,-4.13
2019-01-21T05:25:26.149Z,-4.14
2019-01-21T05:26:56.229Z,-4.16
2019-01-21T05:28:11.599Z,-4.18
2019-01-21T05:29:45.161Z,-4.18
2019-01-21T05:31:06.106Z,-4.18
2019-01-21T05:32:21.321Z,-4.19
2019-01-21T05:33:42.394Z,-4.20
2019-01-21T05:35:31.031Z,-4.19
2019-01-21T05:36:43.874Z,-4.18
2019-01-21T05:37:56.824Z,-4.18
2019-01-21T05:39:14.817Z,-4.17
2019-01-21T05:40:45.534Z,-4.13
2019-01-21T05:42:31.424Z,-4.10
2019-01-21T05:44:21.763Z,-4.08
2019-01-21T05:46:05.033Z,-4.07
2019-01-21T05:47:46.487Z,-4.05
2019-01-21T05:49:33.950Z,-4.04
2019-01-21T05:51:20.222Z,-4.04
2019-01-21T05:52:58.442Z,-4.06
2019-01-21T05:54:20.146Z,-4.09
2019-01-21T05:56:21.364Z,-4.10
2019-01-21T05:57:57.846Z,-4.08
2019-01-21T05:59:42.419Z,-4.08
2019-01-21T06:01:19.319Z,-4.10
2019-01-21T06:02:37.352Z,-4.13
2019-01-21T06:04:18.199Z,-4.13
2019-01-21T06:06:04.151Z,-4.14
2019-01-21T06:07:31.596Z,-4.12
2019-01-21T06:09:09.598Z,-4.12
2019-01-21T06:10:30.944Z,-4.12
2019-01-21T06:11:58.350Z,-4.19
2019-01-21T06:13:31.850Z,-4.27
2019-01-21T06:15:13.221Z,-4.42
2019-01-21T06:16:31.915Z,-4.52
2019-01-21T06:18:08.907Z,-4.64
2019-01-21T06:19:44.877Z,-4.74
2019-01-21T06:21:14.746Z,-4.78
2019-01-21T06:22:42.970Z,-4.91
2019-01-21T06:24:04.486Z,-5.06
2019-01-21T06:25:36.578Z,-5.15
2019-01-21T06:27:05.097Z,-5.15
2019-01-21T06:28:39.330Z,-5.10
2019-01-21T06:30:09.950Z,-5.01
2019-01-21T06:31:43.734Z,-4.90
2019-01-21T06:33:26.985Z,-4.86
2019-01-21T06:34:46.003Z,-4.79
2019-01-21T06:36:13.251Z,-4.77
2019-01-21T06:37:37.382Z,-4.75
2019-01-21T06:39:05.197Z,-4.71
2019-01-21T06:40:34.241Z,-4.66
2019-01-21T06:42:08.171Z,-4.75
2019-01-21T06:43:47.313Z,-4.80
2019-01-21T06:45:18.192Z,-4.82
2019-01-21T06:46:42.728Z,-4.82
2019-01-21T06:48:12.579Z,-4.80
2019-01-21T06:49:44.623Z,-4.84
2019-01-21T06:51:05.796Z,-4.91
2019-01-21T06:52:30.444Z,-4.92
2019-01-21T06:54:15.364Z,-4.87
2019-01-21T06:55:42.795Z,-4.83
2019-01-21T06:57:20.863Z,-4.74
2019-01-21T06:58:55.947Z,-4.67
2019-01-21T07:00:43.796Z,-4.58
2019-01-21T07:02:11.244Z,-4.49
2019-01-21T07:03:41.543Z,-4.39
2019-01-21T07:05:24.471Z,-4.40
2019-01-21T07:06:56.633Z,-4.41
2019-01-21T07:08:23.739Z,-4.47
2019-01-21T07:10:11.091Z,-4.52
2019-01-21T07:11:47.913Z,-4.55
2019-01-21T07:13:19.001Z,-4.55
2019-01-21T07:14:52.419Z,-4.54
2019-01-21T07:16:57.052Z,-4.62
2019-01-21T07:18:26.108Z,-4.72
2019-01-21T07:19:42.268Z,-4.74
2019-01-21T07:21:00.790Z,-4.70
2019-01-21T07:22:28.009Z,-4.65
2019-01-21T07:24:01.424Z,-4.59
2019-01-21T07:25:25.983Z,-4.54
2019-01-21T07:26:54.917Z,-4.45
2019-01-21T07:28:10.617Z,-4.39
2019-01-21T07:29:32.891Z,-4.37
2019-01-21T07:31:12.959Z,-4.35
2019-01-21T07:32:42.527Z,-4.31
2019-01-21T07:34:18.002Z,-4.28
2019-01-21T07:35:46.970Z,-4.25
2019-01-21T07:37:15.226Z,-4.24
2019-01-21T07:38:36.874Z,-4.27
2019-01-21T07:40:04.194Z,-4.32
2019-01-21T07:41:55.061Z,-4.33
2019-01-21T07:43:14.440Z,-4.35
2019-01-21T07:44:45.762Z,-4.30
2019-01-21T07:46:10.341Z,-4.25
2019-01-21T07:47:56.232Z,-4.17
2019-01-21T07:49:42.651Z,-4.08
2019-01-21T07:51:27.753Z,-3.97
2019-01-21T07:53:07.387Z,-3.91
2019-01-21T07:54:31.811Z,-3.84
2019-01-21T07:56:03.709Z,-3.81
2019-01-21T07:57:35.677Z,-3.80
2019-01-21T07:59:28.728Z,-3.76
2019-01-21T08:00:46.940Z,-3.72
2019-01-21T08:02:04.995Z,-3.67
2019-01-21T08:03:38.471Z,-3.63
2019-01-21T08:05:21.075Z,-3.59
2019-01-21T08:06:48.032Z,-3.55
2019-01-21T08:08:09.152Z,-3.51
2019-01-21T08:09:42.131Z,-3.51
2019-01-21T08:11:00.520Z,-3.50
2019-01-21T08:12:18.926Z,-3.46
2019-01-21T08:13:34.458Z,-3.48
2019-01-21T08:14:52.754Z,-3.48
2019-01-21T08:16:17.372Z,-3.54
2019-01-21T08:17:52.616Z,-3.58
2019-01-21T08:19:24.238Z,-3.59
2019-01-21T08:20:37.789Z,-3.64
2019-01-21T08:22:16.343Z,-3.69
2019-01-21T08:23:55.629Z,-3.67
2019-01-21T08:25:43.174Z,-3.62
2019-01-21T08:27:13.941Z,-3.55
2019-01-21T08:28:47.468Z,-3.48
2019-01-21T08:30:16.630Z,-3.43
2019-01-21T08:31:59.291Z,-3.40
2019-01-21T08:33:23.447Z,-3.36
2019-01-21T08:35:12.707Z,-3.30
2019-01-21T08:36:36.881Z,-3.30
2019-01-21T08:38:09.157Z,-3.33
2019-01-21T08:39:55.337Z,-3.38
2019-01-21T08:41:16.843Z,-3.49
2019-01-21T08:42:45.447Z,-3.59
2019-01-21T08:44:33.058Z,-3.65
2019-01-21T08:46:00.820Z,-3.66
2019-01-21T08:47:29.018Z,-3.64
2019-01-21T08:48:53.398Z,-3.65
2019-01-21T08:50:20.607Z,-3.62
2019-01-21T08:51:51.728Z,-3.60
2019-01-21T08:53:22.509Z,-3.56
2019-01-21T08:55:00.606Z,-3.49
2019-01-21T08:56:37.457Z,-3.44
2019-01-21T08:58:29.662Z,-3.39
2019-01-21T08:59:51.026Z,-3.35
2019-01-21T09:01:31.178Z,-3.35
2019-01-21T09:03:04.915Z,-3.35
2019-01-21T09:04:46.394Z,-3.37
2019-01-21T09:06:16.250Z,-3.37
2019-01-21T09:07:55.677Z,-3.33
2019-01-21T09:09:16.726Z,-3.28
2019-01-21T09:10:56.062Z,-3.20
2019-01-21T09:12:20.544Z,-3.13
2019-01-21T09:13:45.085Z,-3.03
2019-01-21T09:15:19.023Z,-2.97
2019-01-21T09:16:40.383Z,-3.07
2019-01-21T09:18:05.131Z,-3.19
2019-01-21T09:19:44.790Z,-3.17
2019-01-21T09:21:15.341Z,-3.13
2019-01-21T09:23:04.494Z,-3.12
2019-01-21T09:24:39.515Z,-3.07
2019-01-21T09:25:57.937Z,-3.21
2019-01-21T09:27:37.905Z,-3.32
2019-01-21T09:29:02.693Z,-3.36
2019-01-21T09:30:41.235Z,-3.29
2019-01-21T09:32:25.593Z,-3.21
2019-01-21T09:33:49.876Z,-3.21
2019-01-21T09:35:11.225Z,-3.20
2019-01-21T09:36:38.472Z,-3.21
2019-01-21T09:38:05.522Z,-3.19
2019-01-21T09:39:32.882Z,-3.10
2019-01-21T09:41:03.020Z,-3.02
2019-01-21T09:42:51.831Z,-3.02
2019-01-21T09:44:10.091Z,-3.01
2019-01-21T09:45:44.077Z,-2.94
2019-01-21T09:46:50.460Z,-2.89
2019-01-21T09:47:56.847Z,-2.77
2019-01-21T09:49:03.042Z,-2.69
2019-01-21T09:50:10.887Z,-2.61
2019-01-21T09:51:18.615Z,-2.51
2019-01-21T09:52:26.653Z,-2.41
2019-01-21T09:53:37.616Z,-2.35
2019-01-21T09:54:45.360Z,-2.32
2019-01-21T09:55:54.916Z,-2.29
2019-01-21T09:57:04.766Z,-2.26
2019-01-21T09:58:12.355Z,-2.20
2019-01-21T09:59:20.064Z,-2.15
2019-01-21T10:00:28.134Z,-2.09
2019-01-21T10:01:35.795Z,-2.04
2019-01-21T10:02:43.567Z,-1.98
2019-01-21T10:03:51.734Z,-1.99
2019-01-21T10:05:00.951Z,-1.98
2019-01-21T10:06:09.042Z,-1.98
2019-01-21T10:07:27.312Z,-1.99
2019-01-21T10:08:51.357Z,-2.02
2019-01-21T10:10:12.457Z,-2.02
2019-01-21T10:11:42.496Z,-1.99
2019-01-21T10:13:15.920Z,-1.99
2019-01-21T10:14:57.049Z,-1.97
2019-01-21T10:16:09.590Z,-1.91
2019-01-21T10:17:39.693Z,-1.86
2019-01-21T10:19:10.959Z,-1.81
2019-01-21T10:20:32.478Z,-1.75
2019-01-21T10:22:12.343Z,-1.72
2019-01-21T10:23:58.321Z,-1.69
2019-01-21T10:25:28.538Z,-1.65
2019-01-21T10:26:46.984Z,-1.71
2019-01-21T10:28:11.319Z,-1.78
2019-01-21T10:29:23.766Z,-1.86
2019-01-21T10:30:42.130Z,-1.89
2019-01-21T10:32:16.354Z,-1.89
2019-01-21T10:33:45.633Z,-1.88
2019-01-21T10:35:21.107Z,-1.84
2019-01-21T10:36:39.373Z,-1.82
2019-01-21T10:38:01.088Z,-1.83
2019-01-21T10:39:31.513Z,-1.86
2019-01-21T10:41:04.276Z,-1.82
2019-01-21T10:42:34.037Z,-1.80
2019-01-21T10:44:04.192Z,-1.82
2019-01-21T10:45:37.208Z,-1.93
2019-01-21T10:47:01.532Z,-1.98
2019-01-21T10:48:14.020Z,-2.03
2019-01-21T10:49:32.507Z,-2.03
2019-01-21T10:50:47.975Z,-2.04
2019-01-21T10:52:23.161Z,-2.04
2019-01-21T10:53:56.947Z,-2.03
2019-01-21T10:55:31.757Z,-2.06
2019-01-21T10:56:53.519Z,-2.03
2019-01-21T10:58:12.177Z,-2.13
2019-01-21T10:59:35.978Z,-2.12
2019-01-21T11:01:26.588Z,-2.11
2019-01-21T11:02:51.106Z,-2.06
2019-01-21T11:04:18.318Z,-1.99
2019-01-21T11:05:42.752Z,-2.02
2019-01-21T11:07:19.566Z,-2.04
2019-01-21T11:08:55.639Z,-2.04
2019-01-21T11:10:26.115Z,-2.08
2019-01-21T11:12:07.107Z,-2.10
2019-01-21T11:13:36.593Z,-2.34
2019-01-21T11:14:55.269Z,-2.52
2019-01-21T11:16:13.429Z,-2.59
2019-01-21T11:17:37.986Z,-2.59
2019-01-21T11:19:15.810Z,-2.52
2019-01-21T11:20:48.016Z,-2.40
2019-01-21T11:22:00.502Z,-2.27
2019-01-21T11:23:37.198Z,-2.14
2019-01-21T11:24:56.236Z,-2.06
2019-01-21T11:26:37.912Z,-2.00
2019-01-21T11:27:56.923Z,-1.91
2019-01-21T11:29:29.614Z,-1.79
2019-01-21T11:31:01.621Z,-1.70
2019-01-21T11:32:32.334Z,-1.65
2019-01-21T11:34:08.365Z,-1.59
2019-01-21T11:35:32.608Z,-1.51
2019-01-21T11:37:00.529Z,-1.45
2019-01-21T11:38:22.139Z,-1.44
2019-01-21T11:39:58.089Z,-1.43
2019-01-21T11:41:26.221Z,-1.42
2019-01-21T11:42:41.485Z,-1.38
2019-01-21T11:44:05.678Z,-1.46
2019-01-21T11:45:50.571Z,-1.49
2019-01-21T11:47:08.930Z,-1.51
2019-01-21T11:48:36.842Z,-1.53
2019-01-21T11:50:26.214Z,-1.55
2019-01-21T11:51:50.897Z,-1.54
2019-01-21T11:53:05.987Z,-1.51
2019-01-21T11:54:18.486Z,-1.49
2019-01-21T11:55:53.139Z,-1.45
2019-01-21T11:57:23.699Z,-1.43
2019-01-21T11:59:01.638Z,-1.43
2019-01-21T12:00:53.517Z,-1.51
2019-01-21T12:02:08.711Z,-1.59
2019-01-21T12:03:42.680Z,-1.52
2019-01-21T12:05:09.937Z,-1.43
2019-01-21T12:06:21.918Z,-1.35
2019-01-21T12:07:49.379Z,-1.30
2019-01-21T12:09:10.826Z,-1.25
2019-01-21T12:10:32.303Z,-1.18
2019-01-21T12:11:57.651Z,-1.10
2019-01-21T12:13:39.722Z,-1.03
2019-01-21T12:15:28.741Z,-0.97
2019-01-21T12:17:19.063Z,-0.97
2019-01-21T12:18:31.581Z,-1.11
2019-01-21T12:20:04.905Z,-1.14
2019-01-21T12:21:37.379Z,-1.15
2019-01-21T12:23:20.193Z,-1.20
2019-01-21T12:24:29.140Z,-1.24
2019-01-21T12:26:14.314Z,-1.35
2019-01-21T12:27:38.131Z,-1.47
2019-01-21T12:29:16.249Z,-1.62
2019-01-21T12:30:40.516Z,-1.73
2019-01-21T12:32:24.361Z,-1.81
2019-01-21T12:34:05.323Z,-1.84
2019-01-21T12:35:29.590Z,-1.85
2019-01-21T12:36:44.752Z,-1.86
2019-01-21T12:38:31.057Z,-1.90
2019-01-21T12:40:09.565Z,-1.89
2019-01-21T12:41:43.370Z,-1.88
2019-01-21T12:43:04.767Z,-1.88
2019-01-21T12:44:51.996Z,-1.87
2019-01-21T12:46:10.219Z,-1.85
2019-01-21T12:47:31.109Z,-1.81
2019-01-21T12:48:49.084Z,-1.78
2019-01-21T12:50:25.505Z,-1.77
2019-01-21T12:52:01.949Z,-1.76
2019-01-21T12:53:38.615Z,-1.71
2019-01-21T12:55:00.085Z,-1.66
2019-01-21T12:56:59.689Z,-1.60
2019-01-21T12:58:37.726Z,-1.57
2019-01-21T13:00:06.363Z,-1.56
2019-01-21T13:01:18.818Z,-1.56
2019-01-21T13:02:36.897Z,-1.56
2019-01-21T13:04:08.962Z,-1.54
2019-01-21T13:05:33.598Z,-1.52
2019-01-21T13:06:49.272Z,-1.51
2019-01-21T13:08:13.572Z,-1.50
2019-01-21T13:09:44.582Z,-1.50
2019-01-21T13:11:02.875Z,-1.52
2019-01-21T13:12:30.355Z,-1.55
2019-01-21T13:13:49.589Z,-1.57
2019-01-21T13:15:07.862Z,-1.53
2019-01-21T13:16:47.076Z,-1.47
2019-01-21T13:18:26.597Z,-1.41
2019-01-21T13:20:04.393Z,-1.35
2019-01-21T13:21:49.988Z,-1.34
2019-01-21T13:23:08.386Z,-1.37
2019-01-21T13:24:52.848Z,-1.52
2019-01-21T13:26:40.375Z,-1.57
2019-01-21T13:28:20.980Z,-1.58
2019-01-21T13:29:33.724Z,-1.54
2019-01-21T13:31:00.379Z,-1.56
2019-01-21T13:32:33.806Z,-1.58
2019-01-21T13:33:51.963Z,-1.61
2019-01-21T13:35:28.254Z,-1.66
2019-01-21T13:36:46.742Z,-1.69
2019-01-21T13:38:19.908Z,-1.72
2019-01-21T13:40:10.750Z,-1.70
2019-01-21T13:41:28.792Z,-1.71
2019-01-21T13:42:47.232Z,-1.75
2019-01-21T13:44:11.258Z,-1.75
2019-01-21T13:45:32.520Z,-1.72
2019-01-21T13:47:03.321Z,-1.70
2019-01-21T13:48:19.285Z,-1.71
2019-01-21T13:49:50.515Z,-1.69
2019-01-21T13:51:24.208Z,-1.65
2019-01-21T13:53:17.425Z,-1.61
2019-01-21T13:54:55.128Z,-1.61
2019-01-21T13:56:25.806Z,-1.67
2019-01-21T13:58:05.053Z,-1.68
2019-01-21T13:59:40.485Z,-1.73
2019-01-21T14:01:04.915Z,-1.81
2019-01-21T14:02:17.487Z,-1.81
2019-01-21T14:03:38.563Z,-1.74
2019-01-21T14:05:12.427Z,-1.69
2019-01-21T14:06:30.355Z,-1.61
2019-01-21T14:08:21.001Z,-1.52
2019-01-21T14:09:54.583Z,-1.50
2019-01-21T14:11:15.736Z,-1.46
2019-01-21T14:12:34.132Z,-1.47
2019-01-21T14:13:58.573Z,-1.49
2019-01-21T14:15:29.203Z,-1.50
2019-01-21T14:16:50.087Z,-1.52
2019-01-21T14:18:28.995Z,-1.57
2019-01-21T14:19:47.181Z,-1.63
2019-01-21T14:21:31.697Z,-1.67
2019-01-21T14:22:53.345Z,-1.73
2019-01-21T14:24:17.743Z,-1.87
2019-01-21T14:25:42.288Z,-1.97
2019-01-21T14:27:19.075Z,-2.02
2019-01-21T14:29:17.216Z,-2.07
2019-01-21T14:30:46.915Z,-2.10
2019-01-21T14:32:20.562Z,-2.16
2019-01-21T14:33:50.955Z,-2.17
2019-01-21T14:35:05.799Z,-2.22
2019-01-21T14:36:30.013Z,-2.26
2019-01-21T14:37:51.677Z,-2.28
2019-01-21T14:39:30.940Z,-2.29
2019-01-21T14:40:52.515Z,-2.31
2019-01-21T14:42:25.834Z,-2.39
2019-01-21T14:44:17.660Z,-2.44
2019-01-21T14:45:30.534Z,-2.46
2019-01-21T14:46:48.410Z,-2.51
2019-01-21T14:48:31.017Z,-2.58
2019-01-21T14:49:49.817Z,-2.60
2019-01-21T14:51:21.970Z,-2.61
2019-01-21T14:52:43.383Z,-2.61
2019-01-21T14:54:11.233Z,-2.62
2019-01-21T14:55:32.647Z,-2.62
2019-01-21T14:57:14.182Z,-2.62
2019-01-21T14:58:41.415Z,-2.64
2019-01-21T15:00:05.826Z,-2.66
2019-01-21T15:01:24.466Z,-2.70
2019-01-21T15:02:53.509Z,-2.71
2019-01-21T15:04:33.464Z,-2.73
2019-01-21T15:05:55.314Z,-2.75
2019-01-21T15:07:17.023Z,-2.76
2019-01-21T15:08:29.762Z,-2.77
2019-01-21T15:10:10.882Z,-2.79
2019-01-21T15:11:47.383Z,-2.81
2019-01-21T15:13:15.012Z,-2.83
2019-01-21T15:15:07.009Z,-2.80
2019-01-21T15:16:36.790Z,-2.79
2019-01-21T15:18:12.755Z,-2.80
2019-01-21T15:19:25.452Z,-2.79
2019-01-21T15:20:50.071Z,-2.80
2019-01-21T15:22:20.924Z,-2.79
2019-01-21T15:23:51.512Z,-2.79
2019-01-21T15:25:27.761Z,-2.80
2019-01-21T15:26:58.900Z,-2.83
2019-01-21T15:28:22.583Z,-2.87
2019-01-21T15:29:41.866Z,-2.88
2019-01-21T15:31:23.685Z,-2.90
2019-01-21T15:32:50.713Z,-2.90
2019-01-21T15:34:26.998Z,-2.90
2019-01-21T15:35:51.472Z,-2.88
2019-01-21T15:37:27.340Z,-2.86
2019-01-21T15:38:59.148Z,-2.84
2019-01-21T15:40:35.947Z,-2.78
2019-01-21T15:41:54.351Z,-2.71
2019-01-21T15:43:13.104Z,-2.70
2019-01-21T15:44:52.657Z,-2.69
2019-01-21T15:46:42.772Z,-2.69
2019-01-21T15:48:17.711Z,-2.69
2019-01-21T15:49:38.403Z,-2.70
2019-01-21T15:50:56.707Z,-2.73
2019-01-21T15:52:12.382Z,-2.75
2019-01-21T15:53:37.468Z,-2.74
2019-01-21T15:54:58.494Z,-2.70
2019-01-21T15:56:16.855Z,-2.70
2019-01-21T15:57:44.139Z,-2.71
2019-01-21T15:59:25.269Z,-2.73
2019-01-21T16:00:43.097Z,-2.71
2019-01-21T16:02:04.325Z,-2.73
2019-01-21T16:03:25.632Z,-2.76
2019-01-21T16:04:53.113Z,-2.77
2019-01-21T16:06:43.468Z,-2.78
2019-01-21T16:07:58.395Z,-2.81
2019-01-21T16:09:22.891Z,-2.87
2019-01-21T16:10:57.164Z,-2.85
2019-01-21T16:12:18.666Z,-2.88
2019-01-21T16:13:37.986Z,-2.89
2019-01-21T16:15:12.462Z,-2.88
2019-01-21T16:16:41.055Z,-2.88
2019-01-21T16:18:02.793Z,-2.88
2019-01-21T16:19:17.283Z,-2.88
2019-01-21T16:20:29.954Z,-2.88
2019-01-21T16:22:16.442Z,-2.85
2019-01-21T16:23:43.282Z,-2.82
2019-01-21T16:25:07.673Z,-2.76
2019-01-21T16:26:15.996Z,-2.72
2019-01-21T16:27:40.562Z,-2.68
2019-01-21T16:28:53.192Z,-2.66
2019-01-21T16:30:25.226Z,-2.64
2019-01-21T16:31:33.319Z,-2.63
2019-01-21T16:32:45.359Z,-2.65
2019-01-21T16:34:25.693Z,-2.65
2019-01-21T16:35:55.010Z,-2.68
2019-01-21T16:37:40.851Z,-2.73
2019-01-21T16:38:53.645Z,-2.74
2019-01-21T16:40:21.972Z,-2.75
2019-01-21T16:41:43.103Z,-2.75
2019-01-21T16:42:51.350Z,-2.77
2019-01-21T16:44:00.448Z,-2.83
2019-01-21T16:45:08.740Z,-2.86
2019-01-21T16:46:16.966Z,-2.87
2019-01-21T16:47:26.501Z,-2.87
2019-01-21T16:48:36.505Z,-2.85
2019-01-21T16:49:44.711Z,-2.84
2019-01-21T16:50:53.805Z,-2.86
2019-01-21T16:52:01.755Z,-2.85
2019-01-21T16:53:11.565Z,-2.85
2019-01-21T16:54:20.107Z,-2.84
2019-01-21T16:55:28.879Z,-2.85
2019-01-21T16:56:36.880Z,-2.83
2019-01-21T16:57:44.538Z,-2.84
2019-01-21T16:58:53.301Z,-2.83
2019-01-21T17:00:01.523Z,-2.80
2019-01-21T17:01:09.636Z,-2.77
2019-01-21T17:02:17.398Z,-2.75
2019-01-21T17:03:25.518Z,-2.74
2019-01-21T17:04:33.691Z,-2.73
2019-01-21T17:05:41.869Z,-2.69
2019-01-21T17:06:50.643Z,-2.71
2019-01-21T17:08:00.703Z,-2.73
2019-01-21T17:09:10.993Z,-2.73
2019-01-21T17:10:18.875Z,-2.73
2019-01-21T17:11:26.480Z,-2.75
2019-01-21T17:12:35.918Z,-2.76
2019-01-21T17:13:44.953Z,-2.77
2019-01-21T17:14:57.661Z,-2.77
2019-01-21T17:16:04.013Z,-2.77
2019-01-21T17:18:20.260Z,-2.75
2019-01-21T17:19:28.050Z,-2.74
2019-01-21T17:20:35.921Z,-2.75
2019-01-21T17:21:43.903Z,-2.72
2019-01-21T17:22:51.880Z,-2.69
2019-01-21T17:24:00.255Z,-2.68
2019-01-21T17:25:09.661Z,-2.69
2019-01-21T17:26:18.644Z,-2.69
2019-01-21T17:27:26.659Z,-2.68
2019-01-21T17:28:34.671Z,-2.69
2019-01-21T17:29:42.982Z,-2.70
2019-01-21T17:30:50.927Z,-2.70
2019-01-21T17:31:58.459Z,-2.69
2019-01-21T17:33:06.328Z,-2.67
2019-01-21T17:34:14.050Z,-2.66
2019-01-21T17:35:22.468Z,-2.62
2019-01-21T17:36:30.679Z,-2.60
2019-01-21T17:37:38.302Z,-2.57
2019-01-21T17:38:46.043Z,-2.55
2019-01-21T17:39:54.061Z,-2.56
2019-01-21T17:41:02.133Z,-2.57
2019-01-21T17:42:10.069Z,-2.58
2019-01-21T17:43:17.721Z,-2.60
2019-01-21T17:44:25.751Z,-2.62
2019-01-21T17:45:34.363Z,-2.65
2019-01-21T17:46:42.488Z,-2.64
2019-01-21T17:47:50.411Z,-2.63
2019-01-21T17:48:58.805Z,-2.63
2019-01-21T17:50:13.062Z,-2.62
2019-01-21T17:51:21.437Z,-2.61
2019-01-21T17:52:29.517Z,-2.63
2019-01-21T17:53:37.439Z,-2.63
2019-01-21T17:54:45.488Z,-2.63
2019-01-21T17:55:53.369Z,-2.66
2019-01-21T17:57:01.618Z,-2.68
2019-01-21T17:58:09.756Z,-2.69
2019-01-21T17:59:18.119Z,-2.70